createdAt,value
2019-02-16T00:03:01.014Z,99.90
2019-02-16T00:07:57.127Z,99.90
2019-02-16T00:12:55.506Z,99.90
2019-02-16T00:17:54.026Z,99.90
2019-02-16T00:22:48.071Z,99.90
2019-02-16T00:27:43.757Z,99.90
2019-02-16T00:32:39.880Z,99.90
2019-02-16T00:37:38.097Z,99.90
2019-02-16T00:42:32.265Z,99.90
2019-02-16T00:47:26.283Z,99.90
2019-02-16T00:52:28.122Z,99.90
2019-02-16T00:57:19.254Z,99.90
2019-02-16T01:02:33.876Z,99.90
2019-02-16T01:07:28.268Z,99.90
2019-02-16T01:12:22.567Z,99.90
2019-02-16T01:17:16.948Z,99.90
2019-02-16T01:22:17.695Z,99.90
2019-02-16T01:27:07.486Z,99.90
2019-02-16T01:32:02.016Z,99.90
2019-02-16T01:36:56.214Z,99.90
2019-02-16T01:41:50.586Z,99.90
2019-02-16T01:46:45.017Z,99.90
2019-02-16T01:51:38.932Z,99.90
2019-02-16T01:56:34.570Z,99.90
2019-02-16T02:01:28.502Z,99.90
2019-02-16T02:06:22.831Z,99.90
2019-02-16T02:11:20.458Z,99.90
2019-02-16T02:16:19.117Z,99.90
2019-02-16T02:21:12.998Z,99.90
2019-02-16T02:26:11.120Z,99.90
2019-02-16T02:31:08.720Z,99.90
2019-02-16T02:36:05.782Z,99.90
2019-02-16T02:41:01.737Z,99.90
2019-02-16T02:45:55.555Z,99.90
2019-02-16T02:50:50.058Z,99.90
2019-02-16T02:55:44.021Z,99.90
2019-02-16T03:00:38.351Z,99.90
2019-02-16T03:05:35.401Z,99.90
2019-02-16T03:10:29.622Z,99.90
2019-02-16T03:15:23.748Z,99.90
2019-02-16T03:20:17.804Z,99.90
2019-02-16T03:25:11.901Z,99.90
2019-02-16T03:30:27.470Z,99.90
2019-02-16T03:35:34.371Z,99.90
2019-02-16T03:40:28.490Z,99.90
2019-02-16T03:45:24.183Z,99.90
2019-02-16T03:50:21.401Z,99.90
2019-02-16T03:55:15.550Z,99.90
2019-02-16T04:00:12.670Z,99.90
2019-02-16T04:05:10.001Z,99.90
2019-02-16T04:10:04.701Z,99.90
2019-02-16T04:14:58.718Z,99.90
2019-02-16T04:19:52.587Z,99.90
2019-02-16T04:24:50.619Z,99.90
2019-02-16T04:29:44.663Z,99.90
2019-02-16T04:34:41.939Z,99.90
2019-02-16T04:39:36.266Z,99.90
2019-02-16T04:44:32.607Z,99.90
2019-02-16T04:49:26.436Z,99.90
2019-02-16T04:54:23.355Z,99.90
2019-02-16T04:59:17.368Z,99.90
2019-02-16T05:04:13.400Z,99.90
2019-02-16T05:09:10.219Z,99.90
2019-02-16T05:14:07.825Z,99.90
2019-02-16T05:19:04.526Z,99.90
2019-02-16T05:24:01.857Z,99.90
2019-02-16T05:28:59.017Z,99.90
2019-02-16T05:33:53.606Z,99.90
2019-02-16T05:38:48.113Z,99.90
2019-02-16T05:43:43.389Z,99.90
2019-02-16T05:48:42.756Z,99.90
2019-02-16T05:53:38.946Z,99.90
2019-02-16T05:58:33.258Z,99.90
2019-02-16T06:03:27.410Z,99.90
2019-02-16T06:08:21.642Z,99.90
2019-02-16T06:13:16.365Z,99.90
2019-02-16T06:18:15.528Z,99.90
2019-02-16T06:23:09.745Z,99.90
2019-02-16T06:28:07.117Z,99.90
2019-02-16T06:33:01.930Z,99.90
2019-02-16T06:38:00.083Z,99.90
2019-02-16T06:42:54.298Z,99.90
2019-02-16T06:47:49.567Z,99.90
2019-02-16T06:52:43.792Z,99.90
2019-02-16T06:57:38.851Z,99.90
2019-02-16T07:02:32.945Z,99.90
2019-02-16T07:07:27.025Z,99.90
2019-02-16T07:12:25.474Z,99.90
2019-02-16T07:17:24.533Z,99.90
2019-02-16T07:22:18.758Z,99.90
2019-02-16T07:27:13.134Z,99.90
2019-02-16T07:32:07.801Z,99.90
2019-02-16T07:37:02.040Z,98.30
2019-02-16T07:41:57.763Z,93.20
2019-02-16T07:46:56.662Z,90.90
2019-02-16T07:51:55.904Z,86.10
2019-02-16T07:57:00.124Z,71.20
2019-02-16T08:01:56.822Z,70.70
2019-02-16T08:06:53.126Z,68.30
2019-02-16T08:12:04.282Z,70.80
2019-02-16T08:17:10.339Z,68.00
2019-02-16T08:22:05.999Z,63.20
2019-02-16T08:27:08.821Z,64.40
2019-02-16T08:32:10.706Z,71.20
2019-02-16T08:37:26.374Z,78.80
2019-02-16T08:42:24.677Z,89.10
2019-02-16T08:47:31.776Z,87.40
2019-02-16T08:52:44.737Z,84.50
2019-02-16T08:58:00.098Z,87.50
2019-02-16T09:03:03.623Z,91.40
2019-02-16T09:07:59.463Z,88.80
2019-02-16T09:12:54.978Z,84.70
2019-02-16T09:18:16.221Z,77.80
2019-02-16T09:23:07.081Z,65.90
2019-02-16T09:28:07.037Z,52.60
2019-02-16T09:33:09.480Z,53.00
2019-02-16T09:38:12.514Z,57.90
2019-02-16T09:43:21.034Z,66.80
2019-02-16T09:48:21.585Z,63.80
2019-02-16T09:53:35.698Z,53.10
2019-02-16T09:58:44.750Z,48.30
2019-02-16T10:03:58.518Z,45.00
2019-02-16T10:09:13.105Z,45.60
2019-02-16T10:14:09.114Z,43.40
2019-02-16T10:19:08.937Z,41.10
2019-02-16T10:24:05.638Z,40.00
2019-02-16T10:29:04.440Z,42.90
2019-02-16T10:34:21.758Z,42.40
2019-02-16T10:39:20.858Z,42.50
2019-02-16T10:44:28.296Z,43.40
2019-02-16T10:49:29.969Z,46.20
2019-02-16T10:54:29.622Z,43.80
2019-02-16T10:59:27.699Z,43.80
2019-02-16T11:04:23.311Z,42.70
2019-02-16T11:09:39.322Z,42.10
2019-02-16T11:14:37.275Z,40.80
2019-02-16T11:19:35.879Z,39.20
2019-02-16T11:24:47.692Z,38.70
2019-02-16T11:29:44.597Z,36.30
2019-02-16T11:34:49.524Z,37.00
2019-02-16T11:39:53.896Z,36.90
2019-02-16T11:45:06.285Z,36.60
2019-02-16T11:50:10.391Z,35.20
2019-02-16T11:55:10.153Z,36.90
2019-02-16T12:00:13.880Z,38.30
2019-02-16T12:05:17.078Z,45.60
2019-02-16T12:10:18.810Z,51.40
2019-02-16T12:15:15.852Z,58.70
2019-02-16T12:20:18.017Z,66.70
2019-02-16T12:25:30.213Z,73.40
2019-02-16T12:30:42.755Z,78.50
2019-02-16T12:35:53.026Z,79.90
2019-02-16T12:40:50.086Z,84.90
2019-02-16T12:45:51.193Z,85.50
2019-02-16T12:50:53.243Z,81.90
2019-02-16T12:55:51.804Z,83.30
2019-02-16T13:00:58.174Z,86.00
2019-02-16T13:05:54.782Z,82.20
2019-02-16T13:10:50.588Z,83.30
2019-02-16T13:15:46.187Z,83.50
2019-02-16T13:20:47.301Z,85.70
2019-02-16T13:26:00.891Z,79.90
2019-02-16T13:31:04.169Z,85.10
2019-02-16T13:35:59.954Z,86.80
2019-02-16T13:40:58.006Z,82.00
2019-02-16T13:46:12.507Z,79.20
2019-02-16T13:51:18.301Z,76.40
2019-02-16T13:56:14.113Z,77.30
2019-02-16T14:01:10.045Z,78.40
2019-02-16T14:06:11.032Z,80.30
2019-02-16T14:11:13.022Z,77.30
2019-02-16T14:16:08.966Z,75.70
2019-02-16T14:21:06.442Z,75.80
2019-02-16T14:26:10.260Z,77.90
2019-02-16T14:31:09.391Z,77.10
2019-02-16T14:36:08.572Z,76.50
2019-02-16T14:41:05.841Z,77.00
2019-02-16T14:45:59.802Z,79.70
2019-02-16T14:50:54.029Z,79.30
2019-02-16T14:55:53.844Z,79.10
2019-02-16T15:00:54.026Z,79.60
2019-02-16T15:05:49.333Z,80.90
2019-02-16T15:11:06.049Z,80.60
2019-02-16T15:16:00.314Z,79.60
2019-02-16T15:20:55.463Z,81.50
2019-02-16T15:25:49.357Z,82.60
2019-02-16T15:30:47.545Z,83.90
2019-02-16T15:35:42.588Z,86.00
2019-02-16T15:40:37.999Z,87.50
2019-02-16T15:45:35.159Z,85.80
2019-02-16T15:50:32.272Z,87.10
2019-02-16T15:55:26.509Z,85.10
2019-02-16T16:00:22.186Z,84.00
2019-02-16T16:05:16.680Z,86.90
2019-02-16T16:10:12.422Z,88.10
2019-02-16T16:15:09.667Z,89.40
2019-02-16T16:20:14.264Z,90.70
2019-02-16T16:25:19.142Z,91.60
2019-02-16T16:30:17.747Z,92.80
2019-02-16T16:35:26.761Z,94.10
2019-02-16T16:40:38.677Z,95.10
2019-02-16T16:45:52.753Z,96.40
2019-02-16T16:51:00.170Z,97.00
2019-02-16T16:56:05.092Z,97.40
2019-02-16T17:01:05.052Z,98.40
2019-02-16T17:06:11.827Z,98.90
2019-02-16T17:11:28.067Z,98.40
2019-02-16T17:16:28.377Z,98.60
2019-02-16T17:21:24.008Z,99.10
2019-02-16T17:26:37.673Z,98.80
2019-02-16T17:31:47.445Z,98.80
2019-02-16T17:36:42.935Z,98.10
2019-02-16T17:41:42.193Z,98.70
2019-02-16T17:46:47.240Z,99.00
2019-02-16T17:51:42.744Z,99.30
2019-02-16T17:56:54.380Z,99.50
2019-02-16T18:01:57.696Z,99.90
2019-02-16T18:07:01.971Z,99.90
2019-02-16T18:12:14.238Z,99.90
2019-02-16T18:17:25.434Z,99.90
2019-02-16T18:22:25.583Z,99.90
2019-02-16T18:27:21.809Z,99.90
2019-02-16T18:32:31.087Z,99.90
2019-02-16T18:37:31.987Z,99.90
2019-02-16T18:42:35.451Z,99.90
2019-02-16T18:47:31.992Z,99.90
2019-02-16T18:52:50.121Z,99.90
2019-02-16T18:57:47.915Z,99.90
2019-02-16T19:02:44.480Z,99.90
2019-02-16T19:07:47.832Z,99.90
2019-02-16T19:12:49.666Z,99.90
2019-02-16T19:17:48.266Z,99.90
2019-02-16T19:22:59.335Z,99.90
2019-02-16T19:28:01.447Z,99.90
2019-02-16T19:33:08.488Z,99.90
2019-02-16T19:38:18.103Z,99.90
2019-02-16T19:43:28.999Z,99.90
2019-02-16T19:48:26.037Z,99.90
2019-02-16T19:53:24.753Z,99.90
2019-02-16T19:58:37.588Z,99.90
2019-02-16T20:03:51.548Z,99.90
2019-02-16T20:09:03.055Z,99.90
2019-02-16T20:14:10.972Z,99.90
2019-02-16T20:19:13.343Z,99.90
2019-02-16T20:24:14.946Z,99.90
2019-02-16T20:29:17.665Z,99.90
2019-02-16T20:34:16.637Z,99.90
2019-02-16T20:39:30.802Z,99.90
2019-02-16T20:44:27.264Z,99.90
2019-02-16T20:49:23.266Z,99.90
2019-02-16T20:54:22.096Z,99.90
2019-02-16T20:59:34.317Z,99.90
2019-02-16T21:04:36.350Z,99.90
2019-02-16T21:09:48.992Z,99.90
2019-02-16T21:15:03.625Z,99.90
2019-02-16T21:20:07.399Z,99.90
2019-02-16T21:25:22.613Z,99.90
2019-02-16T21:30:21.386Z,99.90
2019-02-16T21:35:34.576Z,99.90
2019-02-16T21:40:45.712Z,99.90
2019-02-16T21:45:48.659Z,99.90
2019-02-16T21:50:50.397Z,99.90
2019-02-16T21:56:10.027Z,99.90
2019-02-16T22:01:12.074Z,99.90
2019-02-16T22:06:09.897Z,99.90
2019-02-16T22:11:24.067Z,99.90
2019-02-16T22:16:19.139Z,99.90
2019-02-16T22:21:13.343Z,99.90
2019-02-16T22:26:12.284Z,99.90
2019-02-16T22:31:09.086Z,99.90
2019-02-16T22:36:05.999Z,99.90
2019-02-16T22:41:00.795Z,99.90
2019-02-16T22:45:55.507Z,99.90
2019-02-16T22:50:52.582Z,99.90
2019-02-16T22:55:46.782Z,99.90
2019-02-16T23:00:56.815Z,99.90
2019-02-16T23:05:52.584Z,99.90
2019-02-16T23:10:46.960Z,99.90
2019-02-16T23:15:41.592Z,99.90
2019-02-16T23:20:36.012Z,99.90
2019-02-16T23:25:29.990Z,99.90
2019-02-16T23:30:36.467Z,99.90
2019-02-16T23:35:36.909Z,99.90
2019-02-16T23:40:33.961Z,99.90
2019-02-16T23:45:32.847Z,99.90
2019-02-16T23:50:28.042Z,99.90
2019-02-16T23:55:25.167Z,99.90
